sensor_id;sensor_type;location;lat;lon;timestamp;pressure;altitude;pressure_sealevel;temperature;humidity
21433;BME280;18592;49.708;10.900;2024-01-30T00:00:21;100064.22;;;13.72;51.11
21433;BME280;18592;49.708;10.900;2024-01-30T00:02:23;100061.47;;;13.72;51.17
21433;BME280;18592;49.708;10.900;2024-01-30T00:04:25;100062.53;;;13.71;51.14
21433;BME280;18592;49.708;10.900;2024-01-30T00:06:29;100058.38;;;13.69;51.22
21433;BME280;18592;49.708;10.900;2024-01-30T00:08:35;100053.72;;;13.69;51.09
21433;BME280;18592;49.708;10.900;2024-01-30T00:10:36;100057.56;;;13.68;51.26
21433;BME280;18592;49.708;10.900;2024-01-30T00:12:41;100056.72;;;13.68;51.31
21433;BME280;18592;49.708;10.900;2024-01-30T00:14:43;100060.50;;;13.67;51.20
21433;BME280;18592;49.708;10.900;2024-01-30T00:16:45;100070.03;;;13.64;51.11
21433;BME280;18592;49.708;10.900;2024-01-30T00:18:50;100065.63;;;13.63;51.04
21433;BME280;18592;49.708;10.900;2024-01-30T00:20:55;100065.63;;;13.63;51.14
21433;BME280;18592;49.708;10.900;2024-01-30T00:22:56;100064.81;;;13.63;51.03
21433;BME280;18592;49.708;10.900;2024-01-30T00:24:58;100068.59;;;13.62;51.22
21433;BME280;18592;49.708;10.900;2024-01-30T00:27:02;100066.94;;;13.61;51.07
21433;BME280;18592;49.708;10.900;2024-01-30T00:29:06;100062.75;;;13.58;50.98
21433;BME280;18592;49.708;10.900;2024-01-30T00:31:09;100065.72;;;13.57;51.22
21433;BME280;18592;49.708;10.900;2024-01-30T00:33:14;100063.44;;;13.54;51.21
21433;BME280;18592;49.708;10.900;2024-01-30T00:35:17;100063.44;;;13.54;50.84
21433;BME280;18592;49.708;10.900;2024-01-30T00:37:18;100067.28;;;13.53;50.89
21433;BME280;18592;49.708;10.900;2024-01-30T00:39:21;100066.44;;;13.52;51.15
21433;BME280;18592;49.708;10.900;2024-01-30T00:41:23;100068.31;;;13.52;51.36
21433;BME280;18592;49.708;10.900;2024-01-30T00:43:27;100056.53;;;13.51;51.36
21433;BME280;18592;49.708;10.900;2024-01-30T00:45:29;100057.63;;;13.50;51.33
21433;BME280;18592;49.708;10.900;2024-01-30T00:47:31;100060.09;;;13.52;51.35
21433;BME280;18592;49.708;10.900;2024-01-30T00:49:34;100059.50;;;13.50;51.17
21433;BME280;18592;49.708;10.900;2024-01-30T00:51:36;100060.81;;;13.47;51.19
21433;BME280;18592;49.708;10.900;2024-01-30T00:53:41;100049.47;;;13.44;51.29
21433;BME280;18592;49.708;10.900;2024-01-30T00:55:45;100045.28;;;13.41;51.37
21433;BME280;18592;49.708;10.900;2024-01-30T00:57:53;100041.13;;;13.38;50.84
21433;BME280;18592;49.708;10.900;2024-01-30T00:59:54;100043.50;;;13.35;50.44
21433;BME280;18592;49.708;10.900;2024-01-30T01:01:59;100047.75;;;13.31;50.25
21433;BME280;18592;49.708;10.900;2024-01-30T01:04:01;100044.66;;;13.27;50.36
21433;BME280;18592;49.708;10.900;2024-01-30T01:06:05;100052.28;;;13.25;50.66
21433;BME280;18592;49.708;10.900;2024-01-30T01:08:09;100045.38;;;13.23;50.54
21433;BME280;18592;49.708;10.900;2024-01-30T01:10:10;100047.25;;;13.22;51.19
21433;BME280;18592;49.708;10.900;2024-01-30T01:12:13;100050.22;;;13.21;51.29
21433;BME280;18592;49.708;10.900;2024-01-30T01:14:16;100045.59;;;13.21;51.31
21433;BME280;18592;49.708;10.900;2024-01-30T01:16:20;100048.91;;;13.23;51.31
21433;BME280;18592;49.708;10.900;2024-01-30T01:18:24;100050.84;;;13.23;51.49
21433;BME280;18592;49.708;10.900;2024-01-30T01:20:29;100052.28;;;13.25;51.59
21433;BME280;18592;49.708;10.900;2024-01-30T01:22:30;100049.53;;;13.25;51.47
21433;BME280;18592;49.708;10.900;2024-01-30T01:24:32;100042.13;;;13.26;51.57
21433;BME280;18592;49.708;10.900;2024-01-30T01:26:42;100047.88;;;13.24;51.67
21433;BME280;18592;49.708;10.900;2024-01-30T01:28:44;100044.06;;;13.25;51.81
21433;BME280;18592;49.708;10.900;2024-01-30T01:30:45;100045.72;;;13.26;51.89
21433;BME280;18592;49.708;10.900;2024-01-30T01:32:48;100040.84;;;13.28;51.78
21433;BME280;18592;49.708;10.900;2024-01-30T01:34:58;100033.94;;;13.26;51.95
21433;BME280;18592;49.708;10.900;2024-01-30T01:37:02;100042.97;;;13.26;51.78
21433;BME280;18592;49.708;10.900;2024-01-30T01:39:07;100046.81;;;13.25;51.69
21433;BME280;18592;49.708;10.900;2024-01-30T01:41:12;100044.06;;;13.25;51.54
21433;BME280;18592;49.708;10.900;2024-01-30T01:43:18;100037.75;;;13.25;51.30
21433;BME280;18592;49.708;10.900;2024-01-30T01:45:23;100035.22;;;13.23;51.70
21433;BME280;18592;49.708;10.900;2024-01-30T01:47:25;100024.75;;;13.20;51.35
21433;BME280;18592;49.708;10.900;2024-01-30T01:49:29;100026.66;;;13.20;51.47
21433;BME280;18592;49.708;10.900;2024-01-30T01:51:33;100034.28;;;13.18;51.55
21433;BME280;18592;49.708;10.900;2024-01-30T01:53:35;100042.50;;;13.18;51.73
21433;BME280;18592;49.708;10.900;2024-01-30T01:55:37;100043.53;;;13.17;51.83
21433;BME280;18592;49.708;10.900;2024-01-30T01:57:39;100042.50;;;13.18;51.62
21433;BME280;18592;49.708;10.900;2024-01-30T01:59:43;100045.22;;;13.18;51.89
21433;BME280;18592;49.708;10.900;2024-01-30T02:01:48;100042.69;;;13.16;51.93
21433;BME280;18592;49.708;10.900;2024-01-30T02:03:53;100042.50;;;13.18;51.65
21433;BME280;18592;49.708;10.900;2024-01-30T02:05:58;100033.88;;;13.14;51.56
21433;BME280;18592;49.708;10.900;2024-01-30T02:08:05;100037.69;;;13.13;51.66
21433;BME280;18592;49.708;10.900;2024-01-30T02:10:14;100032.22;;;13.13;51.79
21433;BME280;18592;49.708;10.900;2024-01-30T02:12:35;100024.47;;;13.10;51.43
21433;BME280;18592;49.708;10.900;2024-01-30T02:14:47;100031.84;;;13.10;51.59
21433;BME280;18592;49.708;10.900;2024-01-30T02:16:48;100023.25;;;13.06;51.29
21433;BME280;18592;49.708;10.900;2024-01-30T02:19:04;100025.59;;;13.03;51.67
21433;BME280;18592;49.708;10.900;2024-01-30T02:21:07;100025.38;;;13.04;51.73
21433;BME280;18592;49.708;10.900;2024-01-30T02:23:09;100018.19;;;13.03;51.75
21433;BME280;18592;49.708;10.900;2024-01-30T02:25:14;100027.03;;;13.05;51.68
21433;BME280;18592;49.708;10.900;2024-01-30T02:27:19;100012.13;;;13.01;51.21
21433;BME280;18592;49.708;10.900;2024-01-30T02:29:23;100019.75;;;12.99;51.29
21433;BME280;18592;49.708;10.900;2024-01-30T02:31:25;100023.19;;;12.95;51.20
21433;BME280;18592;49.708;10.900;2024-01-30T02:33:27;100026.97;;;12.94;51.36
21433;BME280;18592;49.708;10.900;2024-01-30T02:35:29;100021.94;;;12.91;51.56
21433;BME280;18592;49.708;10.900;2024-01-30T02:37:30;100017.31;;;12.91;51.53
21433;BME280;18592;49.708;10.900;2024-01-30T02:39:37;100019.22;;;12.91;51.38
21433;BME280;18592;49.708;10.900;2024-01-30T02:41:41;100014.81;;;12.90;51.60
21433;BME280;18592;49.708;10.900;2024-01-30T02:43:42;100011.47;;;12.88;52.06
21433;BME280;18592;49.708;10.900;2024-01-30T02:45:46;100008.13;;;12.86;51.50
21433;BME280;18592;49.708;10.900;2024-01-30T02:47:50;100003.50;;;12.86;51.77
21433;BME280;18592;49.708;10.900;2024-01-30T02:49:52;100012.53;;;12.87;51.67
21433;BME280;18592;49.708;10.900;2024-01-30T02:51:57;100013.59;;;12.86;51.71
21433;BME280;18592;49.708;10.900;2024-01-30T02:53:58;100011.94;;;12.85;51.45
21433;BME280;18592;49.708;10.900;2024-01-30T02:56:03;100017.63;;;12.83;51.83
21433;BME280;18592;49.708;10.900;2024-01-30T02:58:08;100026.69;;;12.84;52.39
21433;BME280;18592;49.708;10.900;2024-01-30T03:00:09;100021.22;;;12.84;51.88
21433;BME280;18592;49.708;10.900;2024-01-30T03:02:14;100018.22;;;12.85;52.03
21433;BME280;18592;49.708;10.900;2024-01-30T03:04:15;100016.56;;;12.84;52.06
21433;BME280;18592;49.708;10.900;2024-01-30T03:06:17;100016.56;;;12.84;52.13
21433;BME280;18592;49.708;10.900;2024-01-30T03:08:21;100011.94;;;12.85;51.91
21433;BME280;18592;49.708;10.900;2024-01-30T03:10:25;100016.56;;;12.84;52.05
21433;BME280;18592;49.708;10.900;2024-01-30T03:12:26;100014.88;;;12.83;51.87
21433;BME280;18592;49.708;10.900;2024-01-30T03:14:31;100017.63;;;12.83;52.06
21433;BME280;18592;49.708;10.900;2024-01-30T03:16:33;100017.88;;;12.82;51.93
21433;BME280;18592;49.708;10.900;2024-01-30T03:18:39;100019.75;;;12.81;51.99
21433;BME280;18592;49.708;10.900;2024-01-30T03:20:40;100013.69;;;12.79;51.88
21433;BME280;18592;49.708;10.900;2024-01-30T03:22:45;100017.47;;;12.78;51.77
21433;BME280;18592;49.708;10.900;2024-01-30T03:24:46;100005.69;;;12.77;51.76
21433;BME280;18592;49.708;10.900;2024-01-30T03:26:48;100001.50;;;12.75;51.69
21433;BME280;18592;49.708;10.900;2024-01-30T03:28:51;100008.91;;;12.74;52.18
21433;BME280;18592;49.708;10.900;2024-01-30T03:30:58;100006.19;;;12.74;51.85
21433;BME280;18592;49.708;10.900;2024-01-30T03:32:59;100013.31;;;12.75;52.14
21433;BME280;18592;49.708;10.900;2024-01-30T03:35:01;100008.91;;;12.74;51.94
21433;BME280;18592;49.708;10.900;2024-01-30T03:37:07;100012.69;;;12.73;51.91
21433;BME280;18592;49.708;10.900;2024-01-30T03:39:09;100012.94;;;12.72;51.82
21433;BME280;18592;49.708;10.900;2024-01-30T03:41:14;100015.88;;;12.70;52.02
21433;BME280;18592;49.708;10.900;2024-01-30T03:43:16;100020.91;;;12.73;52.23
21433;BME280;18592;49.708;10.900;2024-01-30T03:45:21;100018.19;;;12.73;52.51
21433;BME280;18592;49.708;10.900;2024-01-30T03:47:22;100016.03;;;12.75;52.50
21433;BME280;18592;49.708;10.900;2024-01-30T03:49:26;100017.72;;;12.77;52.59
21433;BME280;18592;49.708;10.900;2024-01-30T03:51:31;100017.72;;;12.77;52.51
21433;BME280;18592;49.708;10.900;2024-01-30T03:53:32;100025.47;;;12.80;52.45
21433;BME280;18592;49.708;10.900;2024-01-30T03:55:34;100023.78;;;12.79;52.61
21433;BME280;18592;49.708;10.900;2024-01-30T03:57:39;100024.41;;;12.81;52.59
21433;BME280;18592;49.708;10.900;2024-01-30T03:59:43;100013.25;;;12.82;52.63
21433;BME280;18592;49.708;10.900;2024-01-30T04:01:46;100015.97;;;12.82;52.58
21433;BME280;18592;49.708;10.900;2024-01-30T04:03:50;100010.25;;;12.84;52.35
21433;BME280;18592;49.708;10.900;2024-01-30T04:05:56;100009.22;;;12.85;52.59
21433;BME280;18592;49.708;10.900;2024-01-30T04:07:57;100019.06;;;12.86;52.26
21433;BME280;18592;49.708;10.900;2024-01-30T04:10:02;100014.44;;;12.86;52.51
21433;BME280;18592;49.708;10.900;2024-01-30T04:12:07;100018.84;;;12.87;52.52
21433;BME280;18592;49.708;10.900;2024-01-30T04:14:10;100013.38;;;12.87;52.54
21433;BME280;18592;49.708;10.900;2024-01-30T04:16:21;100014.44;;;12.86;52.46
21433;BME280;18592;49.708;10.900;2024-01-30T04:18:24;100011.69;;;12.86;52.12
21433;BME280;18592;49.708;10.900;2024-01-30T04:20:29;100012.75;;;12.85;52.08
21433;BME280;18592;49.708;10.900;2024-01-30T04:22:31;100012.75;;;12.85;52.20
21433;BME280;18592;49.708;10.900;2024-01-30T04:24:33;100020.16;;;12.85;52.11
21433;BME280;18592;49.708;10.900;2024-01-30T04:26:34;100011.09;;;12.84;52.13
21433;BME280;18592;49.708;10.900;2024-01-30T04:28:36;100014.69;;;12.85;52.42
21433;BME280;18592;49.708;10.900;2024-01-30T04:30:41;100017.03;;;12.81;51.49
21433;BME280;18592;49.708;10.900;2024-01-30T04:32:46;100017.72;;;12.77;51.54
21433;BME280;18592;49.708;10.900;2024-01-30T04:34:48;100008.66;;;12.76;51.75
21433;BME280;18592;49.708;10.900;2024-01-30T04:36:50;100016.28;;;12.74;51.66
21433;BME280;18592;49.708;10.900;2024-01-30T04:38:54;100022.59;;;12.74;51.74
21433;BME280;18592;49.708;10.900;2024-01-30T04:40:55;100026.13;;;12.75;51.90
21433;BME280;18592;49.708;10.900;2024-01-30T04:42:57;100029.97;;;12.74;52.01
21433;BME280;18592;49.708;10.900;2024-01-30T04:45:03;100022.81;;;12.73;52.29
21433;BME280;18592;49.708;10.900;2024-01-30T04:47:05;100014.16;;;12.76;52.54
21433;BME280;18592;49.708;10.900;2024-01-30T04:49:11;100027.59;;;12.77;52.19
21433;BME280;18592;49.708;10.900;2024-01-30T04:51:13;100018.56;;;12.77;51.88
21433;BME280;18592;49.708;10.900;2024-01-30T04:53:15;100028.06;;;12.74;51.47
21433;BME280;18592;49.708;10.900;2024-01-30T04:55:18;100022.59;;;12.74;52.08
21433;BME280;18592;49.708;10.900;2024-01-30T04:57:23;100021.16;;;12.72;52.15
21433;BME280;18592;49.708;10.900;2024-01-30T04:59:25;100027.44;;;12.72;51.90
21433;BME280;18592;49.708;10.900;2024-01-30T05:01:26;100035.66;;;12.72;52.05
21433;BME280;18592;49.708;10.900;2024-01-30T05:03:28;100041.97;;;12.73;52.28
21433;BME280;18592;49.708;10.900;2024-01-30T05:05:32;100038.63;;;12.71;52.36
21433;BME280;18592;49.708;10.900;2024-01-30T05:07:36;100038.63;;;12.71;52.16
21433;BME280;18592;49.708;10.900;2024-01-30T05:09:38;100038.63;;;12.71;52.05
21433;BME280;18592;49.708;10.900;2024-01-30T05:11:40;100047.44;;;12.73;52.16
21433;BME280;18592;49.708;10.900;2024-01-30T05:13:44;100039.22;;;12.73;52.27
21433;BME280;18592;49.708;10.900;2024-01-30T05:15:46;100045.53;;;12.73;52.26
21433;BME280;18592;49.708;10.900;2024-01-30T05:17:52;100037.09;;;12.75;52.12
21433;BME280;18592;49.708;10.900;2024-01-30T05:19:53;100046.38;;;12.74;52.22
21433;BME280;18592;49.708;10.900;2024-01-30T05:21:55;100050.78;;;12.75;52.14
21433;BME280;18592;49.708;10.900;2024-01-30T05:23:58;100043.66;;;12.74;52.04
21433;BME280;18592;49.708;10.900;2024-01-30T05:26:00;100046.84;;;12.71;51.91
21433;BME280;18592;49.708;10.900;2024-01-30T05:28:02;100048.72;;;12.70;51.99
21433;BME280;18592;49.708;10.900;2024-01-30T05:30:13;100043.25;;;12.70;52.02
21433;BME280;18592;49.708;10.900;2024-01-30T05:32:24;100039.91;;;12.68;52.08
21433;BME280;18592;49.708;10.900;2024-01-30T05:34:26;100038.88;;;12.69;52.29
21433;BME280;18592;49.708;10.900;2024-01-30T05:36:27;100036.94;;;12.70;52.64
21433;BME280;18592;49.708;10.900;2024-01-30T05:38:29;100035.66;;;12.72;52.49
21433;BME280;18592;49.708;10.900;2024-01-30T05:40:31;100037.09;;;12.75;52.53
21433;BME280;18592;49.708;10.900;2024-01-30T05:42:34;100040.66;;;12.75;52.43
21433;BME280;18592;49.708;10.900;2024-01-30T05:44:38;100036.88;;;12.77;52.36
21433;BME280;18592;49.708;10.900;2024-01-30T05:46:45;100040.47;;;12.77;52.64
21433;BME280;18592;49.708;10.900;2024-01-30T05:48:49;100041.50;;;12.76;52.30
21433;BME280;18592;49.708;10.900;2024-01-30T05:50:50;100044.84;;;12.78;52.42
21433;BME280;18592;49.708;10.900;2024-01-30T05:52:52;100043.56;;;12.81;52.53
21433;BME280;18592;49.708;10.900;2024-01-30T05:54:54;100037.88;;;12.82;52.93
21433;BME280;18592;49.708;10.900;2024-01-30T05:56:58;100045.00;;;12.83;52.74
21433;BME280;18592;49.708;10.900;2024-01-30T05:59:04;100046.22;;;12.87;52.79
21433;BME280;18592;49.708;10.900;2024-01-30T06:01:07;100042.19;;;12.90;52.72
21433;BME280;18592;49.708;10.900;2024-01-30T06:03:09;100042.56;;;12.93;52.87
21433;BME280;18592;49.708;10.900;2024-01-30T06:05:14;100044.22;;;12.94;52.88
21433;BME280;18592;49.708;10.900;2024-01-30T06:07:16;100040.19;;;12.97;52.59
21433;BME280;18592;49.708;10.900;2024-01-30T06:09:19;100039.97;;;12.98;52.95
21433;BME280;18592;49.708;10.900;2024-01-30T06:11:23;100043.53;;;12.99;52.97
21433;BME280;18592;49.708;10.900;2024-01-30T06:13:24;100045.81;;;13.02;52.78
21433;BME280;18592;49.708;10.900;2024-01-30T06:15:26;100050.25;;;13.03;52.76
21433;BME280;18592;49.708;10.900;2024-01-30T06:17:30;100048.31;;;13.03;52.46
21433;BME280;18592;49.708;10.900;2024-01-30T06:19:32;100040.72;;;13.05;52.59
21433;BME280;18592;49.708;10.900;2024-01-30T06:21:36;100042.41;;;13.06;52.64
21433;BME280;18592;49.708;10.900;2024-01-30T06:23:40;100042.41;;;13.06;52.57
21433;BME280;18592;49.708;10.900;2024-01-30T06:25:41;100038.63;;;13.07;52.21
21433;BME280;18592;49.708;10.900;2024-01-30T06:27:45;100044.69;;;13.09;52.69
21433;BME280;18592;49.708;10.900;2024-01-30T06:29:52;100049.13;;;13.10;52.72
21433;BME280;18592;49.708;10.900;2024-01-30T06:31:56;100042.56;;;13.11;52.56
21433;BME280;18592;49.708;10.900;2024-01-30T06:33:59;100046.13;;;13.12;52.72
21433;BME280;18592;49.708;10.900;2024-01-30T06:36:01;100050.56;;;13.13;52.72
21433;BME280;18592;49.708;10.900;2024-01-30T06:38:07;100047.59;;;13.14;52.85
21433;BME280;18592;49.708;10.900;2024-01-30T06:40:09;100051.50;;;13.18;52.73
21433;BME280;18592;49.708;10.900;2024-01-30T06:42:11;100046.03;;;13.18;52.50
21433;BME280;18592;49.708;10.900;2024-01-30T06:44:13;100046.88;;;13.19;52.33
21433;BME280;18592;49.708;10.900;2024-01-30T06:46:15;100051.50;;;13.18;52.44
21433;BME280;18592;49.708;10.900;2024-01-30T06:48:18;100051.31;;;13.20;52.59
21433;BME280;18592;49.708;10.900;2024-01-30T06:50:22;100059.06;;;13.23;52.60
21433;BME280;18592;49.708;10.900;2024-01-30T06:52:24;100050.59;;;13.24;52.33
21433;BME280;18592;49.708;10.900;2024-01-30T06:54:33;100055.03;;;13.25;52.57
21433;BME280;18592;49.708;10.900;2024-01-30T06:56:43;100052.88;;;13.27;52.52
21433;BME280;18592;49.708;10.900;2024-01-30T06:58:51;100049.69;;;13.30;52.63
21433;BME280;18592;49.708;10.900;2024-01-30T07:00:53;100055.75;;;13.32;52.78
21433;BME280;18592;49.708;10.900;2024-01-30T07:02:55;100059.09;;;13.34;52.24
21433;BME280;18592;49.708;10.900;2024-01-30T07:04:57;100064.56;;;13.34;52.20
21433;BME280;18592;49.708;10.900;2024-01-30T07:06:58;100062.09;;;13.33;52.16
21433;BME280;18592;49.708;10.900;2024-01-30T07:09:04;100058.25;;;13.34;52.71
21433;BME280;18592;49.708;10.900;2024-01-30T07:11:09;100062.69;;;13.35;52.02
21433;BME280;18592;49.708;10.900;2024-01-30T07:13:11;100069.00;;;13.35;52.27
21433;BME280;18592;49.708;10.900;2024-01-30T07:15:15;100072.53;;;13.36;52.36
21433;BME280;18592;49.708;10.900;2024-01-30T07:17:24;100068.50;;;13.38;52.38
21433;BME280;18592;49.708;10.900;2024-01-30T07:19:29;100060.91;;;13.41;52.41
21433;BME280;18592;49.708;10.900;2024-01-30T07:21:38;100063.41;;;13.42;52.44
21433;BME280;18592;49.708;10.900;2024-01-30T07:23:42;100061.28;;;13.44;52.29
21433;BME280;18592;49.708;10.900;2024-01-30T07:25:47;100064.84;;;13.45;52.52
21433;BME280;18592;49.708;10.900;2024-01-30T07:27:53;100065.44;;;13.47;52.50
21433;BME280;18592;49.708;10.900;2024-01-30T07:29:54;100070.47;;;13.50;52.47
21433;BME280;18592;49.708;10.900;2024-01-30T07:31:56;100070.00;;;13.53;52.40
21433;BME280;18592;49.708;10.900;2024-01-30T07:33:57;100073.34;;;13.55;52.62
21433;BME280;18592;49.708;10.900;2024-01-30T07:36:01;100073.94;;;13.57;52.44
21433;BME280;18592;49.708;10.900;2024-01-30T07:38:03;100070.16;;;13.58;52.31
21433;BME280;18592;49.708;10.900;2024-01-30T07:40:05;100075.16;;;13.61;52.37
21433;BME280;18592;49.708;10.900;2024-01-30T07:42:08;100082.28;;;13.62;52.43
21433;BME280;18592;49.708;10.900;2024-01-30T07:44:12;100077.41;;;13.64;52.33
21433;BME280;18592;49.708;10.900;2024-01-30T07:46:16;100076.34;;;13.65;52.29
21433;BME280;18592;49.708;10.900;2024-01-30T07:48:21;100076.75;;;13.68;52.64
21433;BME280;18592;49.708;10.900;2024-01-30T07:50:27;100078.19;;;13.71;52.44
21433;BME280;18592;49.708;10.900;2024-01-30T07:52:40;100076.25;;;13.71;52.39
21433;BME280;18592;49.708;10.900;2024-01-30T07:54:45;100082.94;;;13.75;52.34
21433;BME280;18592;49.708;10.900;2024-01-30T07:56:47;100072.56;;;13.77;52.43
21433;BME280;18592;49.708;10.900;2024-01-30T07:59:18;100075.91;;;13.79;52.41
21433;BME280;18592;49.708;10.900;2024-01-30T08:01:59;100085.34;;;13.83;52.49
21433;BME280;18592;49.708;10.900;2024-01-30T08:04:01;100084.84;;;13.86;52.21
21433;BME280;18592;49.708;10.900;2024-01-30T08:06:05;100088.81;;;13.90;52.19
21433;BME280;18592;49.708;10.900;2024-01-30T08:08:14;100092.41;;;13.91;52.06
21433;BME280;18592;49.708;10.900;2024-01-30T08:10:18;100089.66;;;13.91;51.24
21433;BME280;18592;49.708;10.900;2024-01-30T08:12:20;100087.97;;;13.90;51.42
21433;BME280;18592;49.708;10.900;2024-01-30T08:14:25;100093.47;;;13.90;51.44
21433;BME280;18592;49.708;10.900;2024-01-30T08:16:36;100095.16;;;13.91;51.69
21433;BME280;18592;49.708;10.900;2024-01-30T08:18:38;100090.47;;;13.91;51.49
21433;BME280;18592;49.708;10.900;2024-01-30T08:20:43;100095.28;;;13.96;51.83
21433;BME280;18592;49.708;10.900;2024-01-30T08:22:46;100090.38;;;13.98;51.96
21433;BME280;18592;49.708;10.900;2024-01-30T08:24:50;100085.25;;;14.01;52.07
21433;BME280;18592;49.708;10.900;2024-01-30T08:27:01;100097.44;;;14.06;51.93
21433;BME280;18592;49.708;10.900;2024-01-30T08:29:08;100092.28;;;14.09;52.16
21433;BME280;18592;49.708;10.900;2024-01-30T08:31:13;100099.84;;;14.14;52.17
21433;BME280;18592;49.708;10.900;2024-01-30T08:33:15;100093.63;;;14.18;52.22
21433;BME280;18592;49.708;10.900;2024-01-30T08:35:20;100089.97;;;14.24;52.26
21433;BME280;18592;49.708;10.900;2024-01-30T08:37:21;100086.72;;;14.27;51.97
21433;BME280;18592;49.708;10.900;2024-01-30T08:39:28;100094.28;;;14.32;52.28
21433;BME280;18592;49.708;10.900;2024-01-30T08:41:32;100098.22;;;14.36;52.20
21433;BME280;18592;49.708;10.900;2024-01-30T08:43:34;100093.09;;;14.39;51.94
21433;BME280;18592;49.708;10.900;2024-01-30T08:45:35;100083.31;;;14.43;51.82
21433;BME280;18592;49.708;10.900;2024-01-30T08:47:40;100084.75;;;14.46;51.88
21433;BME280;18592;49.708;10.900;2024-01-30T08:49:43;100086.16;;;14.48;51.85
21433;BME280;18592;49.708;10.900;2024-01-30T08:51:47;100087.59;;;14.51;51.67
21433;BME280;18592;49.708;10.900;2024-01-30T08:53:50;100086.88;;;14.55;51.66
21433;BME280;18592;49.708;10.900;2024-01-30T08:55:51;100086.41;;;14.58;51.76
21433;BME280;18592;49.708;10.900;2024-01-30T08:57:53;100090.56;;;14.61;51.62
21433;BME280;18592;49.708;10.900;2024-01-30T08:59:57;100082.94;;;14.63;51.37
21433;BME280;18592;49.708;10.900;2024-01-30T09:02:29;100083.53;;;14.65;51.51
21433;BME280;18592;49.708;10.900;2024-01-30T09:04:31;100081.16;;;14.69;51.47
21433;BME280;18592;49.708;10.900;2024-01-30T09:06:43;100077.91;;;14.72;51.54
21433;BME280;18592;49.708;10.900;2024-01-30T09:08:52;100082.09;;;14.74;51.34
21433;BME280;18592;49.708;10.900;2024-01-30T09:10:55;100087.13;;;14.77;51.45
21433;BME280;18592;49.708;10.900;2024-01-30T09:13:00;100082.78;;;14.81;51.52
21433;BME280;18592;49.708;10.900;2024-01-30T09:15:06;100090.56;;;14.84;51.32
21433;BME280;18592;49.708;10.900;2024-01-30T09:17:09;100081.84;;;14.87;51.44
21433;BME280;18592;49.708;10.900;2024-01-30T09:19:11;100092.09;;;14.92;51.45
21433;BME280;18592;49.708;10.900;2024-01-30T09:21:15;100092.69;;;14.94;51.59
21433;BME280;18592;49.708;10.900;2024-01-30T09:23:17;100085.63;;;14.98;51.22
21433;BME280;18592;49.708;10.900;2024-01-30T09:25:21;100093.38;;;15.01;51.18
21433;BME280;18592;49.708;10.900;2024-01-30T09:27:23;100093.97;;;15.03;50.99
21433;BME280;18592;49.708;10.900;2024-01-30T09:29:25;100086.34;;;15.05;50.99
21433;BME280;18592;49.708;10.900;2024-01-30T09:31:26;100095.16;;;15.07;51.08
21433;BME280;18592;49.708;10.900;2024-01-30T09:33:28;100097.19;;;15.11;50.78
21433;BME280;18592;49.708;10.900;2024-01-30T09:35:33;100099.66;;;15.13;50.56
21433;BME280;18592;49.708;10.900;2024-01-30T09:37:35;100096.69;;;15.14;50.63
21433;BME280;18592;49.708;10.900;2024-01-30T09:39:37;100095.38;;;15.17;50.38
21433;BME280;18592;49.708;10.900;2024-01-30T09:41:48;100090.72;;;15.17;50.20
21433;BME280;18592;49.708;10.900;2024-01-30T09:43:50;100088.56;;;15.19;50.29
21433;BME280;18592;49.708;10.900;2024-01-30T09:45:53;100094.28;;;15.18;50.38
21433;BME280;18592;49.708;10.900;2024-01-30T09:48:01;100102.03;;;15.21;50.43
21433;BME280;18592;49.708;10.900;2024-01-30T09:50:37;100104.78;;;15.21;50.14
21433;BME280;18592;49.708;10.900;2024-01-30T09:52:55;100099.06;;;15.22;50.24
21433;BME280;18592;49.708;10.900;2024-01-30T09:55:12;100107.06;;;15.24;50.23
21433;BME280;18592;49.708;10.900;2024-01-30T09:57:17;100105.72;;;15.26;50.40
21433;BME280;18592;49.708;10.900;2024-01-30T09:59:30;100092.00;;;15.26;50.02
21433;BME280;18592;49.708;10.900;2024-01-30T10:01:38;100093.91;;;15.26;49.81
21433;BME280;18592;49.708;10.900;2024-01-30T10:03:50;100098.34;;;15.27;49.87
21433;BME280;18592;49.708;10.900;2024-01-30T10:05:55;100099.97;;;15.28;49.80
21433;BME280;18592;49.708;10.900;2024-01-30T10:07:57;100093.41;;;15.29;49.90
21433;BME280;18592;49.708;10.900;2024-01-30T10:10:00;100095.09;;;15.30;50.00
21433;BME280;18592;49.708;10.900;2024-01-30T10:12:02;100095.91;;;15.31;49.79
21433;BME280;18592;49.708;10.900;2024-01-30T10:14:05;100099.28;;;15.33;49.74
21433;BME280;18592;49.708;10.900;2024-01-30T10:16:06;100093.78;;;15.33;49.77
21433;BME280;18592;49.708;10.900;2024-01-30T10:18:10;100097.13;;;15.35;49.92
21433;BME280;18592;49.708;10.900;2024-01-30T10:20:17;100088.88;;;15.35;49.93
21433;BME280;18592;49.708;10.900;2024-01-30T10:22:20;100093.88;;;15.38;49.74
21433;BME280;18592;49.708;10.900;2024-01-30T10:24:25;100093.53;;;15.34;48.98
21433;BME280;18592;49.708;10.900;2024-01-30T10:26:29;100091.03;;;15.33;49.12
21433;BME280;18592;49.708;10.900;2024-01-30T10:28:45;100091.25;;;15.31;49.00
21433;BME280;18592;49.708;10.900;2024-01-30T10:30:57;100090.19;;;15.32;48.93
21433;BME280;18592;49.708;10.900;2024-01-30T10:33:10;100081.94;;;15.32;48.96
21433;BME280;18592;49.708;10.900;2024-01-30T10:35:17;100084.69;;;15.32;49.01
21433;BME280;18592;49.708;10.900;2024-01-30T10:37:25;100086.34;;;15.33;48.98
21433;BME280;18592;49.708;10.900;2024-01-30T10:39:29;100089.09;;;15.33;49.08
21433;BME280;18592;49.708;10.900;2024-01-30T10:41:45;100087.78;;;15.36;49.38